»·PEaware :: N850VJ KSLC-KVGT

N850VJ :: KSLC-KVGT

FLIGHT INFORMATION

Flight Status: Arrived
Operator: Privately registered:
United States
More flights under this callsign
Pilot: Anonymous 13363 (13363)
Aircraft: Unknown
(TBM9)
More flights by this aircraft type
Origin: KSLC Salt Lake City Intl
United States
Destination: KVGT North Las Vegas
United States
More flights between these airports :: More routes between these airports
Route: +EDETH5 MLF KSINO LUXOR2
File this flight plan on PilotEdge
Remarks: FIFE TRREEEEEE
Altitude:
(Current/Filed)
30,000ft
Speed:
(Current/Filed)
370kts
Departed: 15-Jan-18 09:46 PM
Arrived: 15-Jan-18 11:05 PM
Distance/Time
Traveled:
314nm/1:19
Distance/Time
To Go:
Arrived

Flight Plot

Page will automatically refresh every two minutes.

Flight plan parsing failed; only flown route is shown


Map Options




Map Legend


Flown Route
Filed Route
Departure Airport
Arrival Airport
Navaid (VOR, NDB)
Fix

Horizontal Profiles

Position Reports

Time Latitude Longitude Heading Altitude Ground
Speed
15-Jan-18 21:34 40.776760 -111.958431 358 4230ft 0kts
15-Jan-18 21:35 40.776760 -111.958431 358 4230ft 0kts
15-Jan-18 21:36 40.776760 -111.958431 358 4230ft 0kts
15-Jan-18 21:37 40.776760 -111.958431 358 4230ft 0kts
15-Jan-18 21:38 40.776760 -111.958431 358 4230ft 0kts
15-Jan-18 21:39 40.776760 -111.958431 358 4230ft 0kts
15-Jan-18 21:40 40.776760 -111.958431 358 4230ft 0kts
15-Jan-18 21:41 40.776760 -111.958431 358 4230ft 0kts
15-Jan-18 21:42 40.776760 -111.958431 358 4230ft 0kts
15-Jan-18 21:43 40.776760 -111.958431 358 4230ft 0kts
15-Jan-18 21:44 40.776760 -111.958431 358 4230ft 0kts
15-Jan-18 21:45 40.776760 -111.958431 358 4230ft 0kts
15-Jan-18 21:46 40.776760 -111.958431 358 4230ft 0kts
15-Jan-18 21:47 40.776760 -111.958431 358 4230ft 0kts
15-Jan-18 21:48 40.776760 -111.958431 358 4230ft 0kts
15-Jan-18 21:49 40.776361 -111.959739 173 4230ft 9kts
15-Jan-18 21:50 40.773429 -111.960601 185 4230ft 9kts
15-Jan-18 21:51 40.772757 -111.961721 286 4230ft 10kts
15-Jan-18 21:52 40.796125 -111.962344 0 5211ft 151kts
15-Jan-18 21:53 40.819578 -112.000393 282 7690ft 149kts
15-Jan-18 21:54 40.827726 -112.053626 282 10047ft 160kts
15-Jan-18 21:55 40.832227 -112.126847 255 11021ft 208kts
15-Jan-18 21:56 40.819151 -112.194104 254 13729ft 177kts
15-Jan-18 21:57 40.798196 -112.240927 205 16434ft 145kts
15-Jan-18 21:58 40.763962 -112.266400 212 18948ft 143kts
15-Jan-18 21:59 40.722242 -112.281741 199 21010ft 174kts
15-Jan-18 22:00 40.673056 -112.293383 194 23270ft 183kts
15-Jan-18 22:01 40.622207 -112.301706 194 25489ft 188kts
15-Jan-18 22:02 40.569893 -112.310290 195 27633ft 194kts
15-Jan-18 22:03 40.516684 -112.321284 197 29657ft 197kts
15-Jan-18 22:04 40.454377 -112.334638 195 30035ft 265kts
15-Jan-18 22:05 40.375862 -112.351195 194 30008ft 302kts
15-Jan-18 22:06 40.297164 -112.389220 213 30002ft 307kts
15-Jan-18 22:07 40.221152 -112.442341 213 29997ft 312kts
15-Jan-18 22:08 40.144960 -112.495629 213 29996ft 314kts
15-Jan-18 22:09 40.068051 -112.549425 213 29995ft 314kts
15-Jan-18 22:10 39.993656 -112.601410 213 29996ft 315kts
15-Jan-18 22:11 39.921535 -112.651742 212 29969ft 315kts
15-Jan-18 22:12 39.860746 -112.694096 212 29971ft 316kts
15-Jan-18 22:13 39.783621 -112.747744 213 29971ft 316kts
15-Jan-18 22:14 39.706245 -112.801461 213 29971ft 316kts
15-Jan-18 22:15 39.619187 -112.826374 191 29971ft 327kts
15-Jan-18 22:16 39.538346 -112.838895 191 29971ft 327kts
15-Jan-18 22:17 39.448120 -112.852720 191 29972ft 327kts
15-Jan-18 22:18 39.357884 -112.866419 191 29971ft 328kts
15-Jan-18 22:19 39.267384 -112.880052 192 29972ft 328kts
15-Jan-18 22:20 39.177138 -112.893560 192 29972ft 328kts
15-Jan-18 22:21 39.086524 -112.907048 192 29973ft 328kts
15-Jan-18 22:22 38.996239 -112.920428 192 29972ft 329kts
15-Jan-18 22:23 38.907363 -112.933542 192 29973ft 329kts
15-Jan-18 22:24 38.821784 -112.946120 192 29970ft 329kts
15-Jan-18 22:25 38.731087 -112.959472 191 29973ft 328kts
15-Jan-18 22:26 38.641330 -112.972716 190 29970ft 325kts
15-Jan-18 22:27 38.551590 -112.985722 190 29970ft 324kts
15-Jan-18 22:28 38.462195 -112.998656 190 29970ft 324kts
15-Jan-18 22:29 38.372813 -113.012169 196 29963ft 322kts
15-Jan-18 22:30 38.292467 -113.057498 209 29971ft 317kts
15-Jan-18 22:31 38.213123 -113.105692 209 29970ft 317kts
15-Jan-18 22:32 38.133855 -113.153861 209 29970ft 317kts
15-Jan-18 22:33 38.054758 -113.201914 210 29970ft 317kts
15-Jan-18 22:34 37.976158 -113.249625 210 29970ft 317kts
15-Jan-18 22:35 37.897945 -113.297042 210 29971ft 317kts
15-Jan-18 22:36 37.821511 -113.343284 210 30316ft 311kts
15-Jan-18 22:37 37.743179 -113.390635 210 30317ft 314kts
15-Jan-18 22:38 37.665339 -113.437598 210 30316ft 315kts
15-Jan-18 22:39 37.587234 -113.484629 210 30315ft 316kts
15-Jan-18 22:40 37.508421 -113.531991 210 30315ft 316kts
15-Jan-18 22:41 37.429364 -113.579405 210 30315ft 316kts
15-Jan-18 22:42 37.350538 -113.626585 210 30260ft 317kts
15-Jan-18 22:43 37.276149 -113.671000 210 30267ft 317kts
15-Jan-18 22:44 37.196639 -113.718375 210 30255ft 317kts
15-Jan-18 22:45 37.114908 -113.767008 209 28783ft 329kts
15-Jan-18 22:46 37.032703 -113.815734 209 27102ft 323kts
15-Jan-18 22:47 36.952279 -113.863298 209 25421ft 319kts
15-Jan-18 22:48 36.875047 -113.908891 209 23790ft 317kts
15-Jan-18 22:49 36.795871 -113.955535 209 22101ft 316kts
15-Jan-18 22:50 36.716598 -114.002146 208 20410ft 316kts
15-Jan-18 22:51 36.639079 -114.047353 211 18751ft 305kts
15-Jan-18 22:52 36.570395 -114.100772 243 17008ft 285kts
15-Jan-18 22:53 36.531545 -114.185287 243 15550ft 280kts
15-Jan-18 22:54 36.494932 -114.264922 243 15114ft 267kts
15-Jan-18 22:55 36.457328 -114.346788 243 13853ft 278kts
15-Jan-18 22:56 36.419001 -114.430105 243 12607ft 278kts
15-Jan-18 22:57 36.372241 -114.501777 221 11980ft 262kts
15-Jan-18 22:58 36.314889 -114.557303 221 11496ft 268kts
15-Jan-18 22:59 36.256509 -114.613707 221 10267ft 270kts
15-Jan-18 23:00 36.198661 -114.669736 217 9101ft 275kts
15-Jan-18 23:01 36.145105 -114.721139 221 8032ft 275kts
15-Jan-18 23:02 36.126768 -114.803666 260 7977ft 250kts
15-Jan-18 23:03 36.116476 -114.881193 260 7977ft 241kts
15-Jan-18 23:04 36.119722 -114.957112 291 7988ft 223kts
15-Jan-18 23:05 36.146196 -115.024186 311 7982ft 220kts
15-Jan-18 23:06 36.184834 -115.081119 304 7447ft 213kts
15-Jan-18 23:07 36.220155 -115.137172 309 5798ft 204kts
15-Jan-18 23:08 36.252080 -115.192081 295 4663ft 168kts
15-Jan-18 23:09 36.228260 -115.219225 160 3160ft 141kts
15-Jan-18 23:10 36.206540 -115.192384 126 2177ft 53kts
15-Jan-18 23:11 36.205001 -115.191534 291 2172ft 0kts
15-Jan-18 23:12 36.206247 -115.193412 232 2179ft 8kts
15-Jan-18 23:13 36.205491 -115.193716 180 2178ft 0kts
15-Jan-18 23:14 36.205491 -115.193716 180 2178ft 0kts
15-Jan-18 23:15 36.205491 -115.193716 180 2178ft 0kts
15-Jan-18 23:16 36.205491 -115.193716 180 2178ft 0kts
15-Jan-18 23:17 36.205491 -115.193716 180 2178ft 0kts

Navigation Log

Ident Type
Flight plan parsing failed, navigation log unavailable